sensor_id;sensor_type;location;lat;lon;timestamp;temperature;humidity
59067;DHT22;44854;50.838;4.438;2022-09-02T05:32:05;16.60;99.90
59067;DHT22;44854;50.838;4.438;2022-09-02T05:34:33;16.60;99.90
59067;DHT22;44854;50.838;4.438;2022-09-02T05:36:58;16.60;99.90
59067;DHT22;44854;50.838;4.438;2022-09-02T05:39:24;16.60;99.90
59067;DHT22;44854;50.838;4.438;2022-09-02T05:41:49;16.70;99.90
59067;DHT22;44854;50.838;4.438;2022-09-02T05:44:15;16.70;99.90
59067;DHT22;44854;50.838;4.438;2022-09-02T05:46:40;16.80;99.90
59067;DHT22;44854;50.838;4.438;2022-09-02T05:49:06;16.80;99.90
59067;DHT22;44854;50.838;4.438;2022-09-02T05:54:14;16.90;99.90
59067;DHT22;44854;50.838;4.438;2022-09-02T05:56:41;17.00;99.90
59067;DHT22;44854;50.838;4.438;2022-09-02T05:59:07;17.00;99.90
59067;DHT22;44854;50.838;4.438;2022-09-02T06:01:34;17.00;99.90
59067;DHT22;44854;50.838;4.438;2022-09-02T06:03:59;17.00;99.90
59067;DHT22;44854;50.838;4.438;2022-09-02T06:06:27;17.10;99.90
59067;DHT22;44854;50.838;4.438;2022-09-02T06:08:53;17.10;99.90
59067;DHT22;44854;50.838;4.438;2022-09-02T06:11:18;17.20;99.90
59067;DHT22;44854;50.838;4.438;2022-09-02T06:13:44;17.30;99.90
59067;DHT22;44854;50.838;4.438;2022-09-02T06:16:12;17.40;99.90
59067;DHT22;44854;50.838;4.438;2022-09-02T06:18:38;17.50;99.90
59067;DHT22;44854;50.838;4.438;2022-09-02T06:21:04;17.60;99.90
59067;DHT22;44854;50.838;4.438;2022-09-02T06:23:29;17.70;99.90
59067;DHT22;44854;50.838;4.438;2022-09-02T06:25:55;17.80;99.90
59067;DHT22;44854;50.838;4.438;2022-09-02T06:28:20;17.90;99.90
59067;DHT22;44854;50.838;4.438;2022-09-02T06:30:46;18.00;99.90
59067;DHT22;44854;50.838;4.438;2022-09-02T06:33:14;18.10;99.90
59067;DHT22;44854;50.838;4.438;2022-09-02T06:35:42;18.10;99.90
59067;DHT22;44854;50.838;4.438;2022-09-02T06:38:08;18.30;99.90
59067;DHT22;44854;50.838;4.438;2022-09-02T06:40:35;18.40;99.90
59067;DHT22;44854;50.838;4.438;2022-09-02T06:43:01;18.70;99.50
59067;DHT22;44854;50.838;4.438;2022-09-02T06:45:27;18.90;99.10
59067;DHT22;44854;50.838;4.438;2022-09-02T06:47:52;19.10;98.40
59067;DHT22;44854;50.838;4.438;2022-09-02T06:50:18;19.40;97.90
59067;DHT22;44854;50.838;4.438;2022-09-02T06:52:44;19.40;97.70
59067;DHT22;44854;50.838;4.438;2022-09-02T06:55:09;19.40;97.50
59067;DHT22;44854;50.838;4.438;2022-09-02T06:57:36;19.40;97.40
59067;DHT22;44854;50.838;4.438;2022-09-02T07:00:06;19.40;97.40
59067;DHT22;44854;50.838;4.438;2022-09-02T07:02:32;19.60;97.30
59067;DHT22;44854;50.838;4.438;2022-09-02T07:04:57;19.70;97.00
59067;DHT22;44854;50.838;4.438;2022-09-02T07:07:40;19.80;96.90
59067;DHT22;44854;50.838;4.438;2022-09-02T07:10:07;20.00;96.70
59067;DHT22;44854;50.838;4.438;2022-09-02T07:12:33;20.00;96.70
59067;DHT22;44854;50.838;4.438;2022-09-02T07:14:59;20.00;97.00
59067;DHT22;44854;50.838;4.438;2022-09-02T07:17:25;20.00;96.40
59067;DHT22;44854;50.838;4.438;2022-09-02T07:19:51;20.10;96.40
59067;DHT22;44854;50.838;4.438;2022-09-02T07:22:18;20.20;96.40
59067;DHT22;44854;50.838;4.438;2022-09-02T07:24:44;20.30;96.40
59067;DHT22;44854;50.838;4.438;2022-09-02T07:27:09;20.40;96.00
59067;DHT22;44854;50.838;4.438;2022-09-02T07:29:38;20.50;95.80
59067;DHT22;44854;50.838;4.438;2022-09-02T07:32:05;20.60;95.50
59067;DHT22;44854;50.838;4.438;2022-09-02T07:34:31;20.60;95.60
59067;DHT22;44854;50.838;4.438;2022-09-02T07:36:56;20.60;95.70
59067;DHT22;44854;50.838;4.438;2022-09-02T07:39:22;20.60;95.30
59067;DHT22;44854;50.838;4.438;2022-09-02T07:41:48;20.70;95.20
59067;DHT22;44854;50.838;4.438;2022-09-02T07:44:16;20.80;95.00
59067;DHT22;44854;50.838;4.438;2022-09-02T07:46:42;20.90;94.90
59067;DHT22;44854;50.838;4.438;2022-09-02T07:49:08;20.90;94.80
59067;DHT22;44854;50.838;4.438;2022-09-02T07:51:35;21.00;94.60
59067;DHT22;44854;50.838;4.438;2022-09-02T07:54:02;21.10;94.50
59067;DHT22;44854;50.838;4.438;2022-09-02T07:56:30;21.20;94.30
59067;DHT22;44854;50.838;4.438;2022-09-02T07:58:56;21.40;94.40
59067;DHT22;44854;50.838;4.438;2022-09-02T08:01:22;21.40;94.10
59067;DHT22;44854;50.838;4.438;2022-09-02T08:03:47;21.40;94.10
59067;DHT22;44854;50.838;4.438;2022-09-02T08:06:13;21.50;94.00
59067;DHT22;44854;50.838;4.438;2022-09-02T08:08:40;21.50;94.10
59067;DHT22;44854;50.838;4.438;2022-09-02T08:11:06;21.40;94.30
59067;DHT22;44854;50.838;4.438;2022-09-02T08:13:32;21.60;94.20
59067;DHT22;44854;50.838;4.438;2022-09-02T08:15:57;21.70;93.90
59067;DHT22;44854;50.838;4.438;2022-09-02T08:18:23;21.80;93.80
59067;DHT22;44854;50.838;4.438;2022-09-02T08:20:49;21.90;93.60
59067;DHT22;44854;50.838;4.438;2022-09-02T08:23:15;22.00;93.60
59067;DHT22;44854;50.838;4.438;2022-09-02T08:25:41;22.10;93.30
59067;DHT22;44854;50.838;4.438;2022-09-02T08:28:07;22.10;93.50
59067;DHT22;44854;50.838;4.438;2022-09-02T08:30:33;22.20;93.40
59067;DHT22;44854;50.838;4.438;2022-09-02T08:32:58;22.40;93.40
59067;DHT22;44854;50.838;4.438;2022-09-02T08:35:24;22.50;93.40
59067;DHT22;44854;50.838;4.438;2022-09-02T08:37:50;22.60;93.00
59067;DHT22;44854;50.838;4.438;2022-09-02T08:40:20;22.60;93.00
59067;DHT22;44854;50.838;4.438;2022-09-02T08:43:07;22.70;92.70
59067;DHT22;44854;50.838;4.438;2022-09-02T08:48:16;22.90;92.70
59067;DHT22;44854;50.838;4.438;2022-09-02T08:50:44;23.00;92.40
59067;DHT22;44854;50.838;4.438;2022-09-02T08:53:15;23.10;92.10
59067;DHT22;44854;50.838;4.438;2022-09-02T08:55:50;23.10;92.10
59067;DHT22;44854;50.838;4.438;2022-09-02T08:58:17;23.30;91.80
59067;DHT22;44854;50.838;4.438;2022-09-02T09:00:43;23.40;92.00
59067;DHT22;44854;50.838;4.438;2022-09-02T09:03:15;23.50;91.70
59067;DHT22;44854;50.838;4.438;2022-09-02T09:05:53;23.60;91.50
59067;DHT22;44854;50.838;4.438;2022-09-02T09:10:54;23.80;91.20
59067;DHT22;44854;50.838;4.438;2022-09-02T09:18:47;23.90;90.90
59067;DHT22;44854;50.838;4.438;2022-09-02T09:21:14;24.10;90.90
59067;DHT22;44854;50.838;4.438;2022-09-02T09:23:40;24.10;90.80
59067;DHT22;44854;50.838;4.438;2022-09-02T09:28:35;24.30;90.70
59067;DHT22;44854;50.838;4.438;2022-09-02T09:31:01;24.40;90.50
59067;DHT22;44854;50.838;4.438;2022-09-02T09:33:27;24.60;90.20
59067;DHT22;44854;50.838;4.438;2022-09-02T09:35:53;24.40;90.10
59067;DHT22;44854;50.838;4.438;2022-09-02T09:38:29;24.50;90.20
59067;DHT22;44854;50.838;4.438;2022-09-02T09:43:39;24.90;88.80
59067;DHT22;44854;50.838;4.438;2022-09-02T09:48:49;24.80;88.30
59067;DHT22;44854;50.838;4.438;2022-09-02T09:51:15;24.90;88.00
59067;DHT22;44854;50.838;4.438;2022-09-02T09:53:41;24.90;88.50
59067;DHT22;44854;50.838;4.438;2022-09-02T10:01:17;25.50;87.10
59067;DHT22;44854;50.838;4.438;2022-09-02T10:04:01;25.70;87.20
59067;DHT22;44854;50.838;4.438;2022-09-02T10:08:57;25.80;85.30
59067;DHT22;44854;50.838;4.438;2022-09-02T10:11:27;25.80;85.90
59067;DHT22;44854;50.838;4.438;2022-09-02T10:14:02;25.90;85.60
59067;DHT22;44854;50.838;4.438;2022-09-02T10:21:52;25.90;84.40
59067;DHT22;44854;50.838;4.438;2022-09-02T10:26:46;26.20;84.10
59067;DHT22;44854;50.838;4.438;2022-09-02T10:29:25;26.30;84.20
59067;DHT22;44854;50.838;4.438;2022-09-02T10:42:12;26.70;82.00
59067;DHT22;44854;50.838;4.438;2022-09-02T10:44:46;26.90;81.00
59067;DHT22;44854;50.838;4.438;2022-09-02T10:47:20;26.90;80.50
59067;DHT22;44854;50.838;4.438;2022-09-02T10:49:55;26.80;81.10
59067;DHT22;44854;50.838;4.438;2022-09-02T10:57:43;27.00;80.00
59067;DHT22;44854;50.838;4.438;2022-09-02T11:00:18;27.30;79.60
59067;DHT22;44854;50.838;4.438;2022-09-02T11:02:50;27.50;78.40
59067;DHT22;44854;50.838;4.438;2022-09-02T11:05:21;27.40;78.00
59067;DHT22;44854;50.838;4.438;2022-09-02T11:07:59;27.30;78.50
59067;DHT22;44854;50.838;4.438;2022-09-02T11:10:28;27.10;79.20
59067;DHT22;44854;50.838;4.438;2022-09-02T11:13:08;26.70;79.50
59067;DHT22;44854;50.838;4.438;2022-09-02T11:15:44;26.80;79.30
59067;DHT22;44854;50.838;4.438;2022-09-02T11:18:32;26.90;78.70
59067;DHT22;44854;50.838;4.438;2022-09-02T11:21:02;26.90;79.00
59067;DHT22;44854;50.838;4.438;2022-09-02T11:23:52;27.10;77.10
59067;DHT22;44854;50.838;4.438;2022-09-02T11:26:17;27.00;78.20
59067;DHT22;44854;50.838;4.438;2022-09-02T11:28:53;27.00;76.90
59067;DHT22;44854;50.838;4.438;2022-09-02T11:31:42;27.20;76.50
59067;DHT22;44854;50.838;4.438;2022-09-02T11:37:05;27.40;75.20
59067;DHT22;44854;50.838;4.438;2022-09-02T11:39:37;27.70;74.70
59067;DHT22;44854;50.838;4.438;2022-09-02T11:50:10;27.90;72.80
59067;DHT22;44854;50.838;4.438;2022-09-02T11:55:36;27.80;72.10
59067;DHT22;44854;50.838;4.438;2022-09-02T11:58:01;27.80;71.40
59067;DHT22;44854;50.838;4.438;2022-09-02T12:00:28;27.90;71.60
59067;DHT22;44854;50.838;4.438;2022-09-02T12:02:59;27.80;71.10
59067;DHT22;44854;50.838;4.438;2022-09-02T12:08:00;27.90;70.70
59067;DHT22;44854;50.838;4.438;2022-09-02T12:13:31;28.20;68.50
59067;DHT22;44854;50.838;4.438;2022-09-02T12:21:19;28.60;66.10
59067;DHT22;44854;50.838;4.438;2022-09-02T12:26:27;28.10;67.20
59067;DHT22;44854;50.838;4.438;2022-09-02T12:29:09;28.00;66.70
59067;DHT22;44854;50.838;4.438;2022-09-02T12:31:42;28.00;66.60
59067;DHT22;44854;50.838;4.438;2022-09-02T12:36:52;27.90;66.40
59067;DHT22;44854;50.838;4.438;2022-09-02T12:39:43;28.10;66.30
59067;DHT22;44854;50.838;4.438;2022-09-02T12:42:15;28.50;65.00
59067;DHT22;44854;50.838;4.438;2022-09-02T12:47:11;28.70;63.80
59067;DHT22;44854;50.838;4.438;2022-09-02T12:55:08;29.10;63.00
59067;DHT22;44854;50.838;4.438;2022-09-02T12:57:54;29.30;62.00
59067;DHT22;44854;50.838;4.438;2022-09-02T13:00:24;29.30;60.90
59067;DHT22;44854;50.838;4.438;2022-09-02T13:05:25;29.40;60.10
59067;DHT22;44854;50.838;4.438;2022-09-02T13:11:06;29.20;59.70
59067;DHT22;44854;50.838;4.438;2022-09-02T13:13:51;29.00;59.40
59067;DHT22;44854;50.838;4.438;2022-09-02T13:16:37;29.20;59.30
59067;DHT22;44854;50.838;4.438;2022-09-02T13:32:09;29.20;57.90
59067;DHT22;44854;50.838;4.438;2022-09-02T13:34:46;29.30;57.10
59067;DHT22;44854;50.838;4.438;2022-09-02T13:39:53;29.40;56.10
59067;DHT22;44854;50.838;4.438;2022-09-02T13:42:22;29.50;55.20
59067;DHT22;44854;50.838;4.438;2022-09-02T13:44:48;29.60;55.20
59067;DHT22;44854;50.838;4.438;2022-09-02T13:47:16;29.60;55.30
59067;DHT22;44854;50.838;4.438;2022-09-02T13:49:47;29.80;54.50
59067;DHT22;44854;50.838;4.438;2022-09-02T13:52:16;29.70;55.20
59067;DHT22;44854;50.838;4.438;2022-09-02T13:54:43;29.60;55.70
59067;DHT22;44854;50.838;4.438;2022-09-02T13:57:10;29.60;55.80
59067;DHT22;44854;50.838;4.438;2022-09-02T13:59:37;29.80;54.60
59067;DHT22;44854;50.838;4.438;2022-09-02T14:04:41;29.70;54.30
59067;DHT22;44854;50.838;4.438;2022-09-02T14:07:06;29.80;54.50
59067;DHT22;44854;50.838;4.438;2022-09-02T14:09:33;29.80;54.60
59067;DHT22;44854;50.838;4.438;2022-09-02T14:12:00;30.00;54.30
59067;DHT22;44854;50.838;4.438;2022-09-02T14:14:25;29.70;54.70
59067;DHT22;44854;50.838;4.438;2022-09-02T14:17:15;29.60;54.10
59067;DHT22;44854;50.838;4.438;2022-09-02T14:19:38;29.40;54.70
59067;DHT22;44854;50.838;4.438;2022-09-02T14:22:04;29.50;54.80
59067;DHT22;44854;50.838;4.438;2022-09-02T14:24:36;29.30;55.00
59067;DHT22;44854;50.838;4.438;2022-09-02T14:27:01;28.90;54.90
59067;DHT22;44854;50.838;4.438;2022-09-02T14:29:31;28.70;54.60
59067;DHT22;44854;50.838;4.438;2022-09-02T14:32:10;28.80;54.40
59067;DHT22;44854;50.838;4.438;2022-09-02T14:34:42;28.80;53.70
59067;DHT22;44854;50.838;4.438;2022-09-02T14:42:25;29.00;53.90
59067;DHT22;44854;50.838;4.438;2022-09-02T14:44:51;29.20;53.50
59067;DHT22;44854;50.838;4.438;2022-09-02T14:47:17;29.00;53.20
59067;DHT22;44854;50.838;4.438;2022-09-02T14:49:49;28.90;54.00
59067;DHT22;44854;50.838;4.438;2022-09-02T14:52:19;28.90;54.00
59067;DHT22;44854;50.838;4.438;2022-09-02T14:54:46;29.00;53.60
59067;DHT22;44854;50.838;4.438;2022-09-02T14:59:45;29.30;54.40
59067;DHT22;44854;50.838;4.438;2022-09-02T15:04:55;29.40;53.90
59067;DHT22;44854;50.838;4.438;2022-09-02T15:07:21;29.50;53.10
59067;DHT22;44854;50.838;4.438;2022-09-02T15:09:47;29.40;52.40
59067;DHT22;44854;50.838;4.438;2022-09-02T15:12:15;29.40;52.00
59067;DHT22;44854;50.838;4.438;2022-09-02T15:14:43;29.30;52.30
59067;DHT22;44854;50.838;4.438;2022-09-02T15:17:10;29.50;52.30
59067;DHT22;44854;50.838;4.438;2022-09-02T15:19:37;29.60;51.60
59067;DHT22;44854;50.838;4.438;2022-09-02T15:22:02;29.60;51.90
59067;DHT22;44854;50.838;4.438;2022-09-02T15:24:28;29.50;51.30
59067;DHT22;44854;50.838;4.438;2022-09-02T15:26:53;29.40;52.10
59067;DHT22;44854;50.838;4.438;2022-09-02T15:29:19;29.50;51.60
59067;DHT22;44854;50.838;4.438;2022-09-02T15:31:45;29.80;51.90
59067;DHT22;44854;50.838;4.438;2022-09-02T15:34:10;29.90;50.80
59067;DHT22;44854;50.838;4.438;2022-09-02T15:36:36;29.80;51.30
59067;DHT22;44854;50.838;4.438;2022-09-02T15:39:01;29.70;50.90
59067;DHT22;44854;50.838;4.438;2022-09-02T15:41:27;29.80;51.10
59067;DHT22;44854;50.838;4.438;2022-09-02T15:43:56;29.70;50.50
59067;DHT22;44854;50.838;4.438;2022-09-02T15:46:25;29.70;51.80
59067;DHT22;44854;50.838;4.438;2022-09-02T15:48:54;29.90;50.80
59067;DHT22;44854;50.838;4.438;2022-09-02T15:51:21;30.00;50.30
59067;DHT22;44854;50.838;4.438;2022-09-02T15:53:52;30.00;50.10
59067;DHT22;44854;50.838;4.438;2022-09-02T15:56:19;29.90;50.30
59067;DHT22;44854;50.838;4.438;2022-09-02T15:58:44;29.80;50.30
59067;DHT22;44854;50.838;4.438;2022-09-02T16:01:10;29.80;51.90
59067;DHT22;44854;50.838;4.438;2022-09-02T16:03:36;29.80;51.10
59067;DHT22;44854;50.838;4.438;2022-09-02T16:06:04;29.70;51.20
59067;DHT22;44854;50.838;4.438;2022-09-02T16:08:30;29.60;51.80
59067;DHT22;44854;50.838;4.438;2022-09-02T16:10:56;29.50;51.60
59067;DHT22;44854;50.838;4.438;2022-09-02T16:13:22;29.30;51.90
59067;DHT22;44854;50.838;4.438;2022-09-02T16:15:48;29.30;52.80
59067;DHT22;44854;50.838;4.438;2022-09-02T16:18:17;29.30;53.00
59067;DHT22;44854;50.838;4.438;2022-09-02T16:20:43;29.20;53.10
59067;DHT22;44854;50.838;4.438;2022-09-02T16:23:08;29.10;53.30
59067;DHT22;44854;50.838;4.438;2022-09-02T16:25:34;29.00;52.50
59067;DHT22;44854;50.838;4.438;2022-09-02T16:28:00;29.00;52.60
59067;DHT22;44854;50.838;4.438;2022-09-02T16:30:26;29.00;52.60
59067;DHT22;44854;50.838;4.438;2022-09-02T16:32:51;28.90;52.80
59067;DHT22;44854;50.838;4.438;2022-09-02T16:35:17;28.80;53.40
59067;DHT22;44854;50.838;4.438;2022-09-02T16:37:42;28.80;53.60
59067;DHT22;44854;50.838;4.438;2022-09-02T16:40:09;28.70;53.50
59067;DHT22;44854;50.838;4.438;2022-09-02T16:42:35;28.70;53.60
59067;DHT22;44854;50.838;4.438;2022-09-02T16:45:00;28.80;53.80
59067;DHT22;44854;50.838;4.438;2022-09-02T16:47:26;28.80;54.40
59067;DHT22;44854;50.838;4.438;2022-09-02T16:49:51;28.90;54.20
59067;DHT22;44854;50.838;4.438;2022-09-02T16:52:17;28.80;54.00
59067;DHT22;44854;50.838;4.438;2022-09-02T16:54:42;28.80;53.90
59067;DHT22;44854;50.838;4.438;2022-09-02T16:57:08;28.70;54.20
59067;DHT22;44854;50.838;4.438;2022-09-02T16:59:34;28.60;54.70
59067;DHT22;44854;50.838;4.438;2022-09-02T17:01:59;28.60;54.60
59067;DHT22;44854;50.838;4.438;2022-09-02T17:04:25;28.50;55.10
59067;DHT22;44854;50.838;4.438;2022-09-02T17:06:51;28.50;55.00
59067;DHT22;44854;50.838;4.438;2022-09-02T17:09:16;28.40;55.20
59067;DHT22;44854;50.838;4.438;2022-09-02T17:11:42;28.40;56.40
59067;DHT22;44854;50.838;4.438;2022-09-02T17:14:11;28.40;55.60
59067;DHT22;44854;50.838;4.438;2022-09-02T17:16:40;28.30;56.50
59067;DHT22;44854;50.838;4.438;2022-09-02T17:19:06;28.20;56.60
59067;DHT22;44854;50.838;4.438;2022-09-02T17:21:36;28.20;56.60
59067;DHT22;44854;50.838;4.438;2022-09-02T17:24:03;28.20;56.50
59067;DHT22;44854;50.838;4.438;2022-09-02T17:26:29;28.20;56.70
59067;DHT22;44854;50.838;4.438;2022-09-02T17:28:56;28.00;57.20
59067;DHT22;44854;50.838;4.438;2022-09-02T17:33:48;28.00;58.40
59067;DHT22;44854;50.838;4.438;2022-09-02T17:36:13;27.90;59.80
59067;DHT22;44854;50.838;4.438;2022-09-02T17:38:39;27.70;60.50
59067;DHT22;44854;50.838;4.438;2022-09-02T17:41:05;27.50;61.40
59067;DHT22;44854;50.838;4.438;2022-09-02T17:43:49;27.40;60.30
59067;DHT22;44854;50.838;4.438;2022-09-02T17:46:15;27.40;61.20
59067;DHT22;44854;50.838;4.438;2022-09-02T17:48:40;27.40;61.10
59067;DHT22;44854;50.838;4.438;2022-09-02T17:51:06;27.40;62.30
59067;DHT22;44854;50.838;4.438;2022-09-02T17:53:32;27.30;59.30
59067;DHT22;44854;50.838;4.438;2022-09-02T17:56:09;27.30;59.70
59067;DHT22;44854;50.838;4.438;2022-09-02T17:58:43;27.40;59.10
59067;DHT22;44854;50.838;4.438;2022-09-02T18:01:12;27.20;59.40
59067;DHT22;44854;50.838;4.438;2022-09-02T18:04:01;27.10;59.60
59067;DHT22;44854;50.838;4.438;2022-09-02T18:06:30;27.10;59.10
59067;DHT22;44854;50.838;4.438;2022-09-02T18:08:59;27.10;58.90
59067;DHT22;44854;50.838;4.438;2022-09-02T18:11:26;27.10;59.10
59067;DHT22;44854;50.838;4.438;2022-09-02T18:19:01;26.90;58.50
59067;DHT22;44854;50.838;4.438;2022-09-02T18:21:56;26.90;58.50
59067;DHT22;44854;50.838;4.438;2022-09-02T18:29:39;26.80;59.00
59067;DHT22;44854;50.838;4.438;2022-09-02T18:40:02;26.60;59.60
59067;DHT22;44854;50.838;4.438;2022-09-02T18:45:01;26.70;59.80
59067;DHT22;44854;50.838;4.438;2022-09-02T18:50:14;26.50;60.20
59067;DHT22;44854;50.838;4.438;2022-09-02T18:52:46;26.40;62.70
59067;DHT22;44854;50.838;4.438;2022-09-02T18:55:13;26.20;64.10
59067;DHT22;44854;50.838;4.438;2022-09-02T18:57:53;25.90;64.60
59067;DHT22;44854;50.838;4.438;2022-09-02T19:00:20;25.90;65.10
59067;DHT22;44854;50.838;4.438;2022-09-02T19:02:49;26.00;63.50
59067;DHT22;44854;50.838;4.438;2022-09-02T19:05:18;26.00;63.20
59067;DHT22;44854;50.838;4.438;2022-09-02T19:07:45;25.90;64.30
59067;DHT22;44854;50.838;4.438;2022-09-02T19:10:29;25.90;63.70
59067;DHT22;44854;50.838;4.438;2022-09-02T19:12:56;25.80;64.70
59067;DHT22;44854;50.838;4.438;2022-09-02T19:15:21;25.70;65.60
59067;DHT22;44854;50.838;4.438;2022-09-02T19:17:48;25.70;67.20
59067;DHT22;44854;50.838;4.438;2022-09-02T19:20:13;25.70;66.40
59067;DHT22;44854;50.838;4.438;2022-09-02T19:22:49;25.60;66.50
59067;DHT22;44854;50.838;4.438;2022-09-02T19:25:19;25.60;67.10
59067;DHT22;44854;50.838;4.438;2022-09-02T19:27:46;25.50;68.20
59067;DHT22;44854;50.838;4.438;2022-09-02T19:30:16;25.50;70.80
59067;DHT22;44854;50.838;4.438;2022-09-02T19:32:50;25.40;71.70
59067;DHT22;44854;50.838;4.438;2022-09-02T19:35:17;25.30;72.70
59067;DHT22;44854;50.838;4.438;2022-09-02T19:37:46;25.20;72.40
59067;DHT22;44854;50.838;4.438;2022-09-02T19:40:23;25.20;72.80
59067;DHT22;44854;50.838;4.438;2022-09-02T19:42:50;25.10;72.30
59067;DHT22;44854;50.838;4.438;2022-09-02T19:45:17;25.10;72.40
59067;DHT22;44854;50.838;4.438;2022-09-02T19:47:43;25.10;73.10
59067;DHT22;44854;50.838;4.438;2022-09-02T19:50:09;25.00;73.00
59067;DHT22;44854;50.838;4.438;2022-09-02T19:52:41;24.80;73.40
59067;DHT22;44854;50.838;4.438;2022-09-02T19:55:09;24.70;72.90
59067;DHT22;44854;50.838;4.438;2022-09-02T19:57:35;24.70;71.50
59067;DHT22;44854;50.838;4.438;2022-09-02T20:00:01;24.80;71.70
59067;DHT22;44854;50.838;4.438;2022-09-02T20:02:27;24.70;67.90
59067;DHT22;44854;50.838;4.438;2022-09-02T20:04:53;24.50;70.30
59067;DHT22;44854;50.838;4.438;2022-09-02T20:07:19;24.30;74.10
59067;DHT22;44854;50.838;4.438;2022-09-02T20:09:44;24.30;74.90
59067;DHT22;44854;50.838;4.438;2022-09-02T20:12:10;24.40;72.50
59067;DHT22;44854;50.838;4.438;2022-09-02T20:14:36;24.40;72.60
59067;DHT22;44854;50.838;4.438;2022-09-02T20:17:04;24.50;70.80
59067;DHT22;44854;50.838;4.438;2022-09-02T20:19:32;24.50;70.10
59067;DHT22;44854;50.838;4.438;2022-09-02T20:21:59;24.50;69.10
59067;DHT22;44854;50.838;4.438;2022-09-02T20:24:29;24.50;68.50
59067;DHT22;44854;50.838;4.438;2022-09-02T20:26:59;24.50;67.80
59067;DHT22;44854;50.838;4.438;2022-09-02T20:29:32;24.40;71.30
59067;DHT22;44854;50.838;4.438;2022-09-02T20:32:10;24.30;72.30
59067;DHT22;44854;50.838;4.438;2022-09-02T20:55:38;23.70;73.00
59067;DHT22;44854;50.838;4.438;2022-09-02T21:03:44;23.50;72.70
59067;DHT22;44854;50.838;4.438;2022-09-02T21:06:11;23.50;72.60
59067;DHT22;44854;50.838;4.438;2022-09-02T21:08:49;23.40;72.10
59067;DHT22;44854;50.838;4.438;2022-09-02T21:11:21;23.30;72.80
59067;DHT22;44854;50.838;4.438;2022-09-02T21:16:25;23.10;73.70
59067;DHT22;44854;50.838;4.438;2022-09-02T21:19:01;23.10;72.80
59067;DHT22;44854;50.838;4.438;2022-09-02T21:24:04;23.10;72.70
59067;DHT22;44854;50.838;4.438;2022-09-02T21:26:38;22.90;73.80
59067;DHT22;44854;50.838;4.438;2022-09-02T21:29:25;22.80;73.60
59067;DHT22;44854;50.838;4.438;2022-09-02T21:34:20;22.60;73.60
59067;DHT22;44854;50.838;4.438;2022-09-02T21:36:48;22.60;73.50
59067;DHT22;44854;50.838;4.438;2022-09-02T21:39:16;22.50;73.80
59067;DHT22;44854;50.838;4.438;2022-09-02T21:41:49;22.40;74.30
59067;DHT22;44854;50.838;4.438;2022-09-02T21:51:48;21.90;77.90
59067;DHT22;44854;50.838;4.438;2022-09-02T21:54:22;21.90;78.10
59067;DHT22;44854;50.838;4.438;2022-09-02T21:59:29;21.70;77.00
